Time;durP1;ratioP1;P1;durP2;ratioP2;P2;SDS_P1;SDS_P2;PMS_P1;PMS_P2;Temp;Humidity;BMP_temperature;BMP_pressure;BME280_temperature;BME280_humidity;BME280_pressure;Samples;Min_cycle;Max_cycle;Signal;HPM_P1;HPM_P2
2022/07/12 00:01:48;;;;;;;6.20;5.53;;;17.20;99.90;;;;;;6191902;23;20404;-83
2022/07/12 00:04:15;;;;;;;6.07;5.53;;;17.10;99.90;;;;;;6191887;23;20427;-84
2022/07/12 00:06:43;;;;;;;5.70;5.30;;;17.10;99.90;;;;;;6191527;23;20412;-85
2022/07/12 00:09:10;;;;;;;6.10;5.60;;;17.00;99.90;;;;;;6190776;23;20466;-84
2022/07/12 00:11:40;;;;;;;5.20;4.90;;;16.90;99.90;;;;;;6236773;22;20459;-86
2022/07/12 00:14:08;;;;;;;5.83;5.43;;;16.90;99.90;;;;;;6245793;23;20703;-86
2022/07/12 00:16:35;;;;;;;5.57;5.07;;;16.90;99.90;;;;;;6245626;23;20417;-86
2022/07/12 00:19:02;;;;;;;5.87;5.37;;;16.90;99.90;;;;;;6245402;23;20418;-86
2022/07/12 00:21:29;;;;;;;4.97;4.67;;;16.80;99.90;;;;;;6220460;23;20427;-86
2022/07/12 00:23:57;;;;;;;5.73;4.80;;;16.70;99.90;;;;;;6215246;23;20411;-86
2022/07/12 00:26:24;;;;;;;5.90;5.40;;;16.70;99.90;;;;;;6214975;23;20749;-86
2022/07/12 00:28:50;;;;;;;6.10;5.70;;;16.60;99.90;;;;;;6215413;23;20744;-86
2022/07/12 00:31:17;;;;;;;5.50;5.03;;;16.40;99.90;;;;;;6215181;23;20461;-86
2022/07/12 00:33:44;;;;;;;5.33;4.93;;;16.40;99.90;;;;;;6214940;23;20415;-86
2022/07/12 00:36:11;;;;;;;5.60;5.10;;;16.40;99.90;;;;;;6215196;23;20464;-86
2022/07/12 00:38:38;;;;;;;4.93;4.53;;;16.30;99.90;;;;;;6215467;23;20415;-86
2022/07/12 00:41:06;;;;;;;4.90;4.50;;;16.20;99.90;;;;;;6221586;23;20431;-86
2022/07/12 00:43:33;;;;;;;4.13;3.73;;;16.20;99.90;;;;;;6234368;23;20418;-86
2022/07/12 00:46:00;;;;;;;4.33;4.03;;;16.20;99.90;;;;;;6230356;23;20448;-86
2022/07/12 00:48:27;;;;;;;3.90;3.60;;;16.20;99.90;;;;;;6221551;23;20417;-86
2022/07/12 00:50:54;;;;;;;5.27;4.50;;;16.30;99.90;;;;;;6219008;23;20450;-86
2022/07/12 00:53:23;;;;;;;3.97;3.67;;;16.40;99.90;;;;;;6226151;23;20438;-85
2022/07/12 00:55:53;;;;;;;3.40;3.10;;;16.40;99.90;;;;;;6222086;23;20824;-85
2022/07/12 00:58:22;;;;;;;4.03;3.30;;;16.30;99.90;;;;;;6215738;23;20395;-86
2022/07/12 01:00:50;;;;;;;4.53;4.00;;;16.30;99.90;;;;;;6215539;23;20461;-86
2022/07/12 01:03:17;;;;;;;4.37;4.07;;;16.20;99.90;;;;;;6227922;23;20925;-86
2022/07/12 01:05:45;;;;;;;5.50;3.83;;;16.30;99.90;;;;;;6228315;23;20410;-86
2022/07/12 01:08:12;;;;;;;3.93;3.63;;;16.30;99.90;;;;;;6216702;23;20786;-86
2022/07/12 01:10:40;;;;;;;4.43;4.03;;;16.30;99.90;;;;;;6215022;23;20450;-86
2022/07/12 01:13:09;;;;;;;4.67;4.10;;;16.40;99.90;;;;;;6214576;23;20419;-86
2022/07/12 01:15:46;;;;;;;6.07;4.00;;;16.30;99.90;;;;;;6214924;23;20417;-86
2022/07/12 01:18:15;;;;;;;4.23;3.93;;;16.30;99.90;;;;;;6214468;23;20422;-86
2022/07/12 01:20:47;;;;;;;4.50;4.10;;;16.30;99.90;;;;;;6214723;23;20477;-86
2022/07/12 01:23:16;;;;;;;3.93;3.60;;;16.30;99.90;;;;;;6215291;23;20418;-86
2022/07/12 01:25:42;;;;;;;4.37;4.00;;;16.30;99.90;;;;;;6226454;23;20419;-86
2022/07/12 01:28:09;;;;;;;4.73;4.33;;;16.30;99.90;;;;;;6236300;23;20471;-86
2022/07/12 01:30:36;;;;;;;4.00;3.60;;;16.30;99.90;;;;;;6215228;23;20456;-86
2022/07/12 01:33:05;;;;;;;4.63;4.27;;;16.30;99.90;;;;;;6214486;23;20410;-86
2022/07/12 01:35:38;;;;;;;4.23;3.87;;;16.30;99.90;;;;;;6213997;23;20936;-86
2022/07/12 01:38:05;;;;;;;5.17;4.70;;;16.20;99.90;;;;;;6213761;23;20418;-86
2022/07/12 01:40:35;;;;;;;4.90;4.50;;;16.20;99.90;;;;;;6214609;23;20732;-86
2022/07/12 01:43:02;;;;;;;4.63;4.23;;;16.30;99.90;;;;;;6214570;23;20454;-86
2022/07/12 01:45:29;;;;;;;4.60;4.20;;;16.30;99.90;;;;;;6214582;23;20413;-86
2022/07/12 01:47:58;;;;;;;4.40;4.10;;;16.30;99.90;;;;;;6213957;23;20415;-86
2022/07/12 01:50:26;;;;;;;3.20;3.00;;;16.30;99.90;;;;;;6214508;23;20434;-86
2022/07/12 01:52:53;;;;;;;4.37;4.07;;;16.30;99.90;;;;;;6214634;23;20419;-86
2022/07/12 01:55:20;;;;;;;4.93;4.53;;;16.30;99.90;;;;;;6214561;23;20415;-86
2022/07/12 01:57:48;;;;;;;5.10;4.60;;;16.30;99.90;;;;;;6214108;23;20456;-86
2022/07/12 02:00:15;;;;;;;5.00;4.60;;;16.20;99.90;;;;;;6214520;23;20434;-86
2022/07/12 02:02:44;;;;;;;5.10;4.67;;;16.20;99.90;;;;;;6214612;23;20414;-86
2022/07/12 02:05:10;;;;;;;5.50;5.10;;;16.20;99.90;;;;;;6214640;23;20493;-86
2022/07/12 02:07:37;;;;;;;5.67;5.27;;;16.20;99.90;;;;;;6214262;23;20415;-86
2022/07/12 02:10:07;;;;;;;5.90;5.50;;;16.10;99.90;;;;;;6214108;23;20497;-86
2022/07/12 02:12:34;;;;;;;5.47;4.97;;;16.10;99.90;;;;;;6214030;23;21007;-86
2022/07/12 02:15:02;;;;;;;5.10;4.80;;;16.00;99.90;;;;;;6214229;23;20411;-86
2022/07/12 02:17:29;;;;;;;6.27;5.67;;;15.90;99.90;;;;;;6214170;23;20418;-86
2022/07/12 02:19:56;;;;;;;6.23;5.27;;;15.90;99.90;;;;;;6214194;23;21184;-85
2022/07/12 02:22:22;;;;;;;6.60;6.10;;;16.00;99.90;;;;;;6214116;23;20484;-86
2022/07/12 02:24:49;;;;;;;6.20;5.80;;;15.90;99.90;;;;;;6214026;23;20405;-86
2022/07/12 02:27:31;;;;;;;6.20;5.80;;;15.80;99.90;;;;;;6214183;23;20418;-86
2022/07/12 02:30:10;;;;;;;6.43;5.77;;;15.70;99.90;;;;;;6214336;23;20441;-85
2022/07/12 02:32:37;;;;;;;5.80;5.40;;;15.70;99.90;;;;;;6214384;23;20442;-86
2022/07/12 02:35:05;;;;;;;6.17;5.67;;;15.70;99.90;;;;;;6214230;23;20915;-85
2022/07/12 02:37:32;;;;;;;6.37;5.80;;;15.70;99.90;;;;;;6213144;23;20415;-86
2022/07/12 02:42:40;;;;;;;7.37;5.37;;;15.70;99.90;;;;;;6213943;23;20450;-86
2022/07/12 02:45:09;;;;;;;7.80;5.70;;;15.60;99.90;;;;;;6214823;23;20904;-86
2022/07/12 02:47:38;;;;;;;6.33;5.73;;;15.60;99.90;;;;;;6216334;23;20734;-86
2022/07/12 02:50:05;;;;;;;6.53;5.50;;;15.60;99.90;;;;;;6216227;23;20427;-86
2022/07/12 02:52:52;;;;;;;6.23;5.70;;;15.60;99.90;;;;;;6216611;23;20446;-86
2022/07/12 02:55:19;;;;;;;5.40;5.00;;;15.50;99.90;;;;;;6216277;23;20405;-86
2022/07/12 02:57:46;;;;;;;5.40;4.90;;;15.50;99.90;;;;;;6215798;23;20500;-86
2022/07/12 03:00:15;;;;;;;5.70;5.30;;;15.50;99.90;;;;;;6216097;23;20442;-86
2022/07/12 03:02:42;;;;;;;5.70;5.30;;;15.50;99.90;;;;;;6216322;23;20418;-86
2022/07/12 03:05:09;;;;;;;6.27;5.87;;;15.40;99.90;;;;;;6215924;23;20423;-86
2022/07/12 03:07:36;;;;;;;7.00;5.93;;;15.40;99.90;;;;;;6215489;23;20907;-86
2022/07/12 03:10:04;;;;;;;6.63;6.03;;;15.40;99.90;;;;;;6215629;23;20424;-86
2022/07/12 03:12:30;;;;;;;6.90;6.33;;;15.40;99.90;;;;;;6215879;23;20761;-86
2022/07/12 03:14:57;;;;;;;5.43;4.70;;;15.40;99.90;;;;;;6216137;23;20495;-86
2022/07/12 03:17:25;;;;;;;5.93;5.53;;;15.40;99.90;;;;;;6215844;23;20422;-86
2022/07/12 03:19:52;;;;;;;5.33;4.90;;;15.40;99.90;;;;;;6216119;23;20439;-86
2022/07/12 03:22:23;;;;;;;5.97;5.37;;;15.40;99.90;;;;;;6215638;23;20414;-86
2022/07/12 03:24:49;;;;;;;6.27;5.70;;;15.40;99.90;;;;;;6216020;23;20496;-86
2022/07/12 03:27:16;;;;;;;5.93;5.23;;;15.40;99.90;;;;;;6215779;23;20412;-86
2022/07/12 03:29:43;;;;;;;6.27;5.60;;;15.30;99.90;;;;;;6215803;23;20420;-86
2022/07/12 03:32:10;;;;;;;5.17;4.77;;;15.30;99.90;;;;;;6215979;23;20456;-85
2022/07/12 03:34:38;;;;;;;6.33;5.83;;;15.40;99.90;;;;;;6215820;23;20469;-86
2022/07/12 03:37:05;;;;;;;5.87;5.40;;;15.30;99.90;;;;;;6215717;23;20418;-86
2022/07/12 03:39:32;;;;;;;5.70;5.20;;;15.30;99.90;;;;;;6215525;23;20484;-86
2022/07/12 03:41:59;;;;;;;6.53;6.13;;;15.30;99.90;;;;;;6215834;23;20438;-86
2022/07/12 03:44:26;;;;;;;6.93;5.67;;;15.10;99.90;;;;;;6215380;23;20720;-86
2022/07/12 03:46:52;;;;;;;6.10;5.10;;;15.00;99.90;;;;;;6215713;23;20728;-86
2022/07/12 03:49:20;;;;;;;5.73;5.23;;;14.90;99.90;;;;;;6215840;23;20410;-86
2022/07/12 03:51:48;;;;;;;6.10;5.70;;;15.00;99.90;;;;;;6214970;23;20479;-86
2022/07/12 03:54:15;;;;;;;5.20;4.80;;;15.00;99.90;;;;;;6215745;23;20409;-86
2022/07/12 03:59:40;;;;;;;5.40;4.90;;;15.20;99.90;;;;;;6152617;23;20414;-86
2022/07/12 04:02:07;;;;;;;6.57;4.20;;;15.30;99.90;;;;;;6152759;23;20791;-86
2022/07/12 04:04:34;;;;;;;5.53;5.03;;;15.30;99.90;;;;;;6180016;23;20444;-86
2022/07/12 04:07:05;;;;;;;4.90;4.40;;;15.30;99.90;;;;;;6222759;23;20394;-86
2022/07/12 04:09:32;;;;;;;4.97;4.50;;;15.40;99.90;;;;;;6237802;23;20493;-86
2022/07/12 04:11:59;;;;;;;4.70;4.30;;;15.40;99.90;;;;;;6220048;23;20446;-86
2022/07/12 04:14:26;;;;;;;4.80;4.27;;;15.50;99.90;;;;;;6215402;23;20933;-86
2022/07/12 04:16:53;;;;;;;4.20;3.90;;;15.50;99.90;;;;;;6215117;23;20911;-86
2022/07/12 04:19:21;;;;;;;5.33;4.93;;;15.50;99.90;;;;;;6215544;23;20408;-86
2022/07/12 04:21:48;;;;;;;6.60;6.10;;;15.50;99.90;;;;;;6215715;23;20429;-86
2022/07/12 04:24:16;;;;;;;6.67;5.93;;;15.30;99.90;;;;;;6215754;23;20405;-86
2022/07/12 04:26:43;;;;;;;5.23;4.83;;;15.30;99.90;;;;;;6215372;23;20420;-86
2022/07/12 04:29:10;;;;;;;5.50;5.10;;;15.40;99.90;;;;;;6214999;23;20412;-86
2022/07/12 04:31:37;;;;;;;6.27;5.80;;;15.40;99.90;;;;;;6215350;23;20473;-86
2022/07/12 04:34:04;;;;;;;9.00;6.33;;;15.50;99.90;;;;;;6215355;23;20767;-86
2022/07/12 04:36:32;;;;;;;5.30;4.90;;;15.50;99.90;;;;;;6215671;23;20413;-86
2022/07/12 04:38:59;;;;;;;6.17;5.53;;;15.50;99.90;;;;;;6215001;23;20502;-85
2022/07/12 04:41:28;;;;;;;6.10;5.70;;;15.50;99.90;;;;;;6215561;23;20436;-86
2022/07/12 04:43:54;;;;;;;6.53;6.03;;;15.60;99.90;;;;;;6215519;23;20397;-86
2022/07/12 04:46:21;;;;;;;6.40;5.80;;;15.60;99.90;;;;;;6215081;23;20402;-86
2022/07/12 04:48:48;;;;;;;6.60;6.10;;;15.60;99.90;;;;;;6215438;23;20410;-86
2022/07/12 04:51:16;;;;;;;6.03;5.53;;;15.60;99.90;;;;;;6215230;23;20430;-86
2022/07/12 04:53:43;;;;;;;6.07;5.57;;;15.70;99.90;;;;;;6215841;23;20413;-86
2022/07/12 04:56:09;;;;;;;6.33;5.80;;;15.70;99.90;;;;;;6214906;23;20413;-86
2022/07/12 04:58:38;;;;;;;5.60;5.00;;;15.70;99.90;;;;;;6214811;23;20417;-86
2022/07/12 05:01:07;;;;;;;6.73;6.13;;;15.80;99.90;;;;;;6214812;23;20447;-86
2022/07/12 05:03:33;;;;;;;6.40;5.90;;;15.80;99.90;;;;;;6223778;23;20406;-86
2022/07/12 05:06:01;;;;;;;5.63;4.77;;;15.80;99.90;;;;;;6231263;23;20410;-86
2022/07/12 05:08:28;;;;;;;5.63;5.23;;;15.80;99.90;;;;;;6226751;23;20409;-86
2022/07/12 05:10:55;;;;;;;9.53;5.47;;;15.90;99.90;;;;;;6220101;23;20433;-86
2022/07/12 05:13:22;;;;;;;6.70;6.03;;;16.00;99.90;;;;;;6221952;23;21049;-86
2022/07/12 05:15:50;;;;;;;5.97;5.50;;;15.90;99.90;;;;;;6239149;23;20453;-86
2022/07/12 05:18:18;;;;;;;5.90;5.40;;;15.90;99.90;;;;;;6229750;23;20548;-86
2022/07/12 05:20:45;;;;;;;5.93;5.37;;;15.90;99.90;;;;;;6215770;23;20442;-86
2022/07/12 05:23:11;;;;;;;6.13;4.80;;;16.00;99.90;;;;;;6215339;23;20938;-86
2022/07/12 05:25:38;;;;;;;5.97;5.47;;;16.10;99.90;;;;;;6231379;23;20417;-86
2022/07/12 05:28:28;;;;;;;6.23;5.77;;;16.20;99.90;;;;;;6235310;23;20407;-86
2022/07/12 05:30:57;;;;;;;4.00;3.60;;;16.30;99.90;;;;;;6216719;23;20431;-86
2022/07/12 05:33:24;;;;;;;5.40;5.00;;;16.40;99.90;;;;;;6215238;23;20537;-86
2022/07/12 05:35:51;;;;;;;4.00;3.70;;;16.50;99.90;;;;;;6214688;23;20421;-86
2022/07/12 05:38:18;;;;;;;3.30;3.00;;;16.60;99.90;;;;;;6216687;23;20450;-86
2022/07/12 05:40:44;;;;;;;3.60;3.37;;;16.60;99.90;;;;;;6215763;23;20420;-85
2022/07/12 05:43:11;;;;;;;4.53;4.13;;;16.70;99.90;;;;;;6214585;23;20410;-86
2022/07/12 05:45:42;;;;;;;4.23;3.90;;;16.70;99.90;;;;;;6214450;23;20915;-86
2022/07/12 05:48:10;;;;;;;3.60;3.30;;;16.90;99.90;;;;;;6215561;23;20400;-86
2022/07/12 05:50:36;;;;;;;3.77;3.47;;;16.90;99.90;;;;;;6214821;23;20442;-86
2022/07/12 05:55:47;;;;;;;2.80;2.60;;;17.10;99.90;;;;;;6214587;23;20376;-86
2022/07/12 05:58:14;;;;;;;3.23;2.87;;;17.20;99.90;;;;;;6214807;23;20415;-86
2022/07/12 06:00:41;;;;;;;3.37;2.40;;;17.20;99.90;;;;;;6214422;23;20473;-86
2022/07/12 06:03:08;;;;;;;2.53;2.43;;;17.30;99.90;;;;;;6214600;23;20426;-86
2022/07/12 06:05:36;;;;;;;2.40;2.30;;;17.40;99.90;;;;;;6214283;23;20917;-86
2022/07/12 06:08:03;;;;;;;2.90;2.03;;;17.50;99.90;;;;;;6214179;23;20907;-86
2022/07/12 06:10:30;;;;;;;2.77;2.40;;;17.50;99.90;;;;;;6217920;22;20450;-79
2022/07/12 06:12:56;;;;;;;2.53;2.33;;;17.50;99.90;;;;;;6223309;23;20447;-83
2022/07/12 06:15:24;;;;;;;2.67;2.40;;;17.70;99.90;;;;;;6222298;23;20900;-85
2022/07/12 06:17:51;;;;;;;2.83;2.63;;;17.80;99.90;;;;;;6220555;23;20429;-85
2022/07/12 06:20:17;;;;;;;2.50;2.30;;;17.90;99.90;;;;;;6217159;23;20761;-87
2022/07/12 06:22:45;;;;;;;2.73;2.53;;;18.00;99.90;;;;;;6192923;23;20911;-85
2022/07/12 06:25:12;;;;;;;2.90;2.00;;;17.80;99.90;;;;;;6193947;23;20417;-84
2022/07/12 06:27:39;;;;;;;1.70;1.60;;;17.80;99.90;;;;;;6193176;23;20419;-85
2022/07/12 06:30:07;;;;;;;3.90;2.17;;;17.70;99.90;;;;;;6193387;23;20411;-82
2022/07/12 06:32:34;;;;;;;3.37;2.30;;;17.90;99.90;;;;;;6192669;23;20405;-82
2022/07/12 06:35:00;;;;;;;2.37;2.27;;;18.10;99.90;;;;;;6193097;23;20408;-82
2022/07/12 06:37:27;;;;;;;2.30;2.20;;;18.30;99.90;;;;;;6192904;23;20420;-82
2022/07/12 06:39:55;;;;;;;2.77;2.53;;;18.40;99.90;;;;;;6192700;23;20914;-83
2022/07/12 06:42:22;;;;;;;2.53;2.30;;;18.50;99.90;;;;;;6192798;23;20456;-83
2022/07/12 06:44:49;;;;;;;2.80;2.60;;;18.70;99.90;;;;;;6192987;23;20414;-82
2022/07/12 06:47:16;;;;;;;3.03;2.73;;;18.80;99.90;;;;;;6192473;23;20492;-82
2022/07/12 06:49:42;;;;;;;2.23;2.13;;;18.90;99.90;;;;;;6191991;23;20737;-81
2022/07/12 06:52:09;;;;;;;2.37;2.20;;;19.00;99.90;;;;;;6191527;23;20534;-81
2022/07/12 06:54:36;;;;;;;2.13;2.00;;;19.00;99.90;;;;;;6191970;23;20400;-82
2022/07/12 06:57:04;;;;;;;2.27;2.13;;;19.00;99.90;;;;;;6191819;23;20417;-82
2022/07/12 06:59:31;;;;;;;2.10;1.77;;;19.10;99.90;;;;;;6191327;23;20421;-82
2022/07/12 07:01:58;;;;;;;1.60;1.50;;;19.20;99.90;;;;;;6200254;23;20822;-82
2022/07/12 07:04:25;;;;;;;1.50;1.40;;;19.20;99.90;;;;;;6191499;23;20466;-81
2022/07/12 07:06:52;;;;;;;2.73;1.87;;;19.20;99.90;;;;;;6191129;23;20410;-83
2022/07/12 07:09:19;;;;;;;1.80;1.70;;;19.30;99.90;;;;;;6190935;23;20413;-82
2022/07/12 07:11:46;;;;;;;2.37;2.27;;;19.40;99.90;;;;;;6215363;23;20450;-83
2022/07/12 07:14:14;;;;;;;1.73;1.63;;;19.50;99.90;;;;;;6222982;23;20434;-78
2022/07/12 07:16:41;;;;;;;1.20;1.20;;;19.50;99.90;;;;;;6221583;23;20412;-79
2022/07/12 07:19:08;;;;;;;1.43;1.33;;;19.50;99.90;;;;;;6222381;23;20411;-82
2022/07/12 07:21:34;;;;;;;1.40;1.37;;;19.40;99.90;;;;;;6216929;23;20763;-81
2022/07/12 07:24:01;;;;;;;1.90;1.80;;;19.50;99.90;;;;;;6222870;23;20430;-75
2022/07/12 07:26:28;;;;;;;2.33;1.43;;;19.60;99.90;;;;;;6220988;23;20446;-83
2022/07/12 07:31:41;;;;;;;1.10;1.10;;;19.50;99.90;;;;;;6222750;23;20455;-84
2022/07/12 07:34:08;;;;;;;1.53;1.40;;;19.70;99.90;;;;;;6222781;23;20412;-83
2022/07/12 07:36:34;;;;;;;1.10;1.10;;;19.90;99.90;;;;;;6221795;23;20423;-85
2022/07/12 07:39:02;;;;;;;1.30;1.23;;;20.00;99.90;;;;;;6222381;23;20416;-84
2022/07/12 07:41:28;;;;;;;1.50;1.30;;;20.00;99.90;;;;;;6221471;23;20515;-84
2022/07/12 07:43:55;;;;;;;1.80;1.70;;;19.90;99.90;;;;;;6222354;23;20480;-84
2022/07/12 07:46:22;;;;;;;1.57;1.47;;;20.00;99.90;;;;;;6221477;23;20409;-80
2022/07/12 07:48:50;;;;;;;2.93;1.27;;;20.00;99.90;;;;;;6225041;23;20464;-86
2022/07/12 07:51:17;;;;;;;1.20;1.20;;;20.00;99.70;;;;;;6231651;23;20484;-85
2022/07/12 07:53:44;;;;;;;2.00;1.77;;;20.00;99.30;;;;;;6223282;23;20487;-82
2022/07/12 07:56:10;;;;;;;4.67;1.23;;;20.10;99.30;;;;;;6222252;23;20413;-79
2022/07/12 07:58:37;;;;;;;1.37;1.27;;;20.10;99.00;;;;;;6221442;23;20412;-83
2022/07/12 08:01:04;;;;;;;1.23;1.13;;;20.10;99.00;;;;;;6221325;23;20520;-84
2022/07/12 08:03:31;;;;;;;2.60;1.53;;;20.20;98.60;;;;;;6220688;23;20453;-84
2022/07/12 08:06:00;;;;;;;1.80;1.70;;;20.50;99.40;;;;;;6222477;23;20982;-82
2022/07/12 08:08:27;;;;;;;1.40;1.30;;;20.60;99.20;;;;;;6223110;23;20414;-80
2022/07/12 08:10:54;;;;;;;1.67;1.57;;;20.50;98.30;;;;;;6221953;23;20437;-84
2022/07/12 08:13:21;;;;;;;2.17;1.97;;;20.70;99.00;;;;;;6222639;23;20438;-83
2022/07/12 08:15:48;;;;;;;1.53;1.43;;;20.80;97.40;;;;;;6221692;23;20412;-85
2022/07/12 08:18:15;;;;;;;1.70;1.60;;;20.70;96.80;;;;;;6224356;23;20395;-82
2022/07/12 08:20:42;;;;;;;1.73;1.63;;;20.80;97.50;;;;;;6223537;23;20437;-81
2022/07/12 08:23:10;;;;;;;1.57;1.30;;;20.80;96.60;;;;;;6227096;23;20510;-84
2022/07/12 08:25:37;;;;;;;1.47;1.37;;;20.80;96.20;;;;;;6223016;23;20415;-83
2022/07/12 08:28:04;;;;;;;1.70;1.60;;;20.80;96.10;;;;;;6223886;23;20919;-82
2022/07/12 08:30:31;;;;;;;1.90;1.30;;;20.80;95.50;;;;;;6224252;23;20427;-83
2022/07/12 08:32:58;;;;;;;3.20;1.97;;;20.70;95.40;;;;;;6226380;23;20401;-85
2022/07/12 08:35:25;;;;;;;1.50;1.40;;;20.70;95.80;;;;;;6225479;23;20425;-83
2022/07/12 08:37:52;;;;;;;1.47;1.37;;;20.70;95.80;;;;;;6222495;23;20479;-80
2022/07/12 08:40:20;;;;;;;1.73;1.33;;;20.80;95.70;;;;;;6223507;23;20431;-82
2022/07/12 08:42:47;;;;;;;1.60;1.47;;;20.90;96.10;;;;;;6227657;23;21002;-84
2022/07/12 08:45:14;;;;;;;1.57;1.30;;;21.00;96.10;;;;;;6226462;23;20509;-83
2022/07/12 08:47:41;;;;;;;1.40;1.30;;;21.00;95.60;;;;;;6223983;23;20413;-82
2022/07/12 08:50:17;;;;;;;1.50;1.40;;;21.00;95.10;;;;;;6222868;23;20763;-82
2022/07/12 08:52:46;;;;;;;1.10;1.00;;;21.00;95.00;;;;;;6222762;23;20391;-83
2022/07/12 08:55:23;;;;;;;0.93;0.93;;;21.10;94.70;;;;;;6222660;23;20469;-83
2022/07/12 08:57:51;;;;;;;1.30;1.30;;;21.00;94.40;;;;;;6224771;23;20480;-81
2022/07/12 09:00:19;;;;;;;1.60;1.37;;;21.00;94.60;;;;;;6222990;23;20518;-83
2022/07/12 09:02:48;;;;;;;2.40;1.10;;;21.10;95.70;;;;;;6223662;23;20502;-84
2022/07/12 09:05:16;;;;;;;3.20;1.33;;;21.20;94.50;;;;;;6223822;23;20410;-87
2022/07/12 09:07:43;;;;;;;1.30;1.20;;;21.30;94.10;;;;;;6223358;23;20417;-83
2022/07/12 09:10:12;;;;;;;1.30;1.20;;;21.40;93.90;;;;;;6223086;23;20501;-86
2022/07/12 09:12:41;;;;;;;2.07;1.80;;;21.40;93.90;;;;;;6222526;23;20423;-84
2022/07/12 09:15:12;;;;;;;1.50;1.40;;;21.50;94.10;;;;;;6223546;23;20446;-84
2022/07/12 09:17:39;;;;;;;1.73;1.27;;;21.70;93.90;;;;;;6227828;23;20407;-84
2022/07/12 09:20:09;;;;;;;1.57;1.47;;;21.80;93.70;;;;;;6225268;23;20478;-85
2022/07/12 09:22:36;;;;;;;1.50;1.40;;;21.70;93.60;;;;;;6224957;23;20402;-84
2022/07/12 09:25:10;;;;;;;1.03;1.00;;;21.90;93.90;;;;;;6222803;23;20417;-84
2022/07/12 09:27:36;;;;;;;1.27;1.17;;;22.20;93.30;;;;;;6223097;23;20396;-82
2022/07/12 09:30:11;;;;;;;1.67;1.57;;;22.30;93.70;;;;;;6222352;23;20422;-83
2022/07/12 09:38:19;;;;;;;1.70;1.60;;;22.50;91.80;;;;;;6224018;23;20384;-83
2022/07/12 09:40:47;;;;;;;1.40;1.30;;;22.60;92.80;;;;;;6222793;23;20495;-83
2022/07/12 09:43:15;;;;;;;1.37;1.27;;;22.90;93.50;;;;;;6224098;23;20441;-81
2022/07/12 09:45:44;;;;;;;1.67;0.90;;;23.20;92.70;;;;;;6222751;23;20429;-82
2022/07/12 09:48:11;;;;;;;2.13;1.30;;;23.20;91.30;;;;;;6225187;23;20492;-82
2022/07/12 09:50:39;;;;;;;2.27;1.40;;;23.40;92.20;;;;;;6228946;23;20429;-82
2022/07/12 09:53:06;;;;;;;1.80;1.13;;;23.60;91.10;;;;;;6226547;23;20412;-81
2022/07/12 09:55:35;;;;;;;1.27;1.20;;;23.80;91.80;;;;;;6225626;23;20406;-82
2022/07/12 09:58:03;;;;;;;1.50;1.37;;;23.90;89.20;;;;;;6225107;23;20421;-81
2022/07/12 10:00:30;;;;;;;1.40;1.30;;;23.80;88.60;;;;;;6224950;23;20452;-82
2022/07/12 10:03:00;;;;;;;2.27;1.53;;;23.70;87.80;;;;;;6224760;23;20470;-80
2022/07/12 10:05:28;;;;;;;2.27;2.17;;;23.50;88.80;;;;;;6225076;23;20417;-82
2022/07/12 10:07:55;;;;;;;1.67;1.20;;;23.20;88.50;;;;;;6224958;23;20410;-82
2022/07/12 10:10:23;;;;;;;1.07;1.07;;;23.30;88.60;;;;;;6225305;23;20447;-82
2022/07/12 10:12:50;;;;;;;1.60;1.00;;;23.40;90.70;;;;;;6224706;23;20393;-80
2022/07/12 10:15:20;;;;;;;1.30;1.20;;;23.60;89.00;;;;;;6225773;23;20501;-81
2022/07/12 10:17:54;;;;;;;0.87;0.80;;;23.40;86.50;;;;;;6223782;23;20397;-82
2022/07/12 10:20:24;;;;;;;0.80;0.80;;;23.60;89.40;;;;;;6225418;23;20433;-78
2022/07/12 10:22:52;;;;;;;1.10;1.03;;;23.80;87.10;;;;;;6232597;23;20441;-82
2022/07/12 10:25:33;;;;;;;1.07;1.00;;;23.90;87.80;;;;;;6224987;23;20407;-82
2022/07/12 10:28:00;;;;;;;1.13;0.90;;;24.00;88.50;;;;;;6224284;23;20410;-81
2022/07/12 10:30:28;;;;;;;1.47;1.10;;;24.30;87.80;;;;;;6224986;23;20459;-81
2022/07/12 10:32:58;;;;;;;1.43;1.07;;;24.30;85.70;;;;;;6225296;23;20497;-81
2022/07/12 10:35:28;;;;;;;1.63;1.53;;;24.40;84.20;;;;;;6224989;23;20414;-81
2022/07/12 10:38:17;;;;;;;0.80;0.80;;;24.60;86.40;;;;;;6223897;23;20414;-81
2022/07/12 10:40:44;;;;;;;0.83;0.80;;;24.90;83.80;;;;;;6224632;23;20428;-82
2022/07/12 10:46:18;;;;;;;1.20;1.10;;;24.30;84.10;;;;;;6222611;23;20782;-81
2022/07/12 10:48:45;;;;;;;2.20;1.13;;;24.30;85.60;;;;;;6225600;23;20450;-82
2022/07/12 10:51:19;;;;;;;1.67;1.00;;;24.40;87.50;;;;;;6225487;23;20421;-81
2022/07/12 10:53:48;;;;;;;1.27;1.03;;;24.60;88.30;;;;;;6225299;23;20395;-81
2022/07/12 10:56:18;;;;;;;3.17;1.00;;;24.90;87.30;;;;;;6224291;23;20410;-80
2022/07/12 10:58:47;;;;;;;1.10;1.00;;;25.20;83.40;;;;;;6225554;23;20924;-80
2022/07/12 11:01:15;;;;;;;0.70;0.60;;;25.40;80.80;;;;;;6225496;23;20426;-81
2022/07/12 11:03:55;;;;;;;1.37;0.70;;;25.60;79.30;;;;;;6230651;23;20439;-81
2022/07/12 11:06:27;;;;;;;1.00;1.00;;;25.60;80.40;;;;;;6234404;23;20417;-80
2022/07/12 11:08:57;;;;;;;4.27;0.70;;;25.60;78.40;;;;;;6228262;23;20471;-81
2022/07/12 11:11:26;;;;;;;0.83;0.83;;;25.90;77.30;;;;;;6234228;23;20559;-79
2022/07/12 11:13:54;;;;;;;0.83;0.63;;;26.00;77.20;;;;;;6227972;23;20404;-80
2022/07/12 11:16:21;;;;;;;1.07;1.00;;;26.20;76.80;;;;;;6226516;23;20423;-80
2022/07/12 11:18:49;;;;;;;1.20;0.80;;;26.80;77.00;;;;;;6226705;23;20411;-82
2022/07/12 11:21:15;;;;;;;1.37;0.70;;;27.20;73.60;;;;;;6226628;23;20436;-82
2022/07/12 11:23:44;;;;;;;0.70;0.50;;;27.60;70.50;;;;;;6225982;23;21040;-82
2022/07/12 11:26:12;;;;;;;0.67;0.63;;;27.40;68.30;;;;;;6226288;23;20424;-82
2022/07/12 11:28:41;;;;;;;0.83;0.80;;;27.40;68.10;;;;;;6226276;23;20415;-82
2022/07/12 11:31:10;;;;;;;0.70;0.70;;;27.80;69.30;;;;;;6226724;23;20489;-82
2022/07/12 11:33:39;;;;;;;2.83;1.37;;;28.30;68.20;;;;;;6227529;23;20411;-82
2022/07/12 11:36:07;;;;;;;0.80;0.80;;;28.40;66.80;;;;;;6226150;23;20576;-80
2022/07/12 11:38:35;;;;;;;0.70;0.60;;;28.50;64.60;;;;;;6224378;23;20446;-80
2022/07/12 11:41:05;;;;;;;0.60;0.60;;;28.70;66.40;;;;;;6224674;23;21030;-79
2022/07/12 11:43:33;;;;;;;1.73;1.07;;;29.00;65.60;;;;;;6224573;23;20454;-80
2022/07/12 11:46:01;;;;;;;0.70;0.70;;;29.00;62.10;;;;;;6224719;23;20409;-79
2022/07/12 11:48:29;;;;;;;2.60;0.67;;;29.30;61.00;;;;;;6225636;23;20406;-80
2022/07/12 11:50:56;;;;;;;0.60;0.60;;;29.50;62.30;;;;;;6224927;23;20466;-81
2022/07/12 11:53:25;;;;;;;1.07;0.80;;;29.80;60.60;;;;;;6226221;23;20442;-81
2022/07/12 11:55:55;;;;;;;1.13;0.80;;;30.20;59.10;;;;;;6225366;23;20418;-82
2022/07/12 11:58:24;;;;;;;0.80;0.80;;;30.50;58.40;;;;;;6227062;23;20744;-82
2022/07/12 12:00:52;;;;;;;0.50;0.50;;;30.80;57.50;;;;;;6230315;23;20436;-79
2022/07/12 12:03:21;;;;;;;1.30;0.70;;;30.80;57.30;;;;;;6228627;23;20413;-82
2022/07/12 12:05:49;;;;;;;1.00;0.70;;;31.00;57.10;;;;;;6225594;23;20429;-82
2022/07/12 12:08:17;;;;;;;1.37;0.70;;;30.80;54.70;;;;;;6226005;23;20419;-82
2022/07/12 12:10:53;;;;;;;0.60;0.60;;;30.30;54.80;;;;;;6224583;23;20463;-82
2022/07/12 12:13:19;;;;;;;0.83;0.50;;;30.50;55.60;;;;;;6219993;23;20417;-81
2022/07/12 12:15:52;;;;;;;0.87;0.73;;;30.90;54.00;;;;;;6220400;23;20416;-81
2022/07/12 12:18:30;;;;;;;0.80;0.67;;;31.20;54.20;;;;;;6219912;23;20389;-81
2022/07/12 12:21:01;;;;;;;1.70;0.80;;;31.40;52.50;;;;;;6220095;23;20427;-81
2022/07/12 12:23:28;;;;;;;0.70;0.70;;;31.40;52.70;;;;;;6220242;23;20724;-81
2022/07/12 12:26:10;;;;;;;0.83;0.83;;;32.00;52.50;;;;;;6219968;23;20418;-82
2022/07/12 12:28:47;;;;;;;0.67;0.60;;;32.60;51.60;;;;;;6219551;23;20392;-81
2022/07/12 12:31:17;;;;;;;0.73;0.70;;;32.70;50.00;;;;;;6219417;23;20435;-82
2022/07/12 12:33:45;;;;;;;0.80;0.67;;;33.40;51.00;;;;;;6219794;23;20404;-82
2022/07/12 12:36:22;;;;;;;0.60;0.60;;;33.90;48.30;;;;;;6219985;23;20455;-81
2022/07/12 12:38:51;;;;;;;0.70;0.70;;;34.50;49.30;;;;;;6220246;23;20431;-81
2022/07/12 12:41:19;;;;;;;1.57;0.70;;;35.10;47.10;;;;;;6220478;23;20989;-83
2022/07/12 12:43:46;;;;;;;0.70;0.70;;;35.90;45.90;;;;;;6220351;23;20405;-80
2022/07/12 12:46:12;;;;;;;0.70;0.40;;;36.60;43.20;;;;;;6220561;23;20412;-79
2022/07/12 12:48:48;;;;;;;2.23;0.80;;;37.30;41.90;;;;;;6220129;23;20409;-80
2022/07/12 12:51:15;;;;;;;0.63;0.60;;;37.40;39.30;;;;;;6220641;23;20492;-80
2022/07/12 12:53:42;;;;;;;0.77;0.77;;;36.50;39.30;;;;;;6220329;23;20492;-79
2022/07/12 12:56:11;;;;;;;1.20;0.63;;;36.30;42.20;;;;;;6219732;23;20799;-80
2022/07/12 12:58:38;;;;;;;2.30;0.80;;;36.70;42.40;;;;;;6220636;23;20412;-80
2022/07/12 13:01:06;;;;;;;0.87;0.87;;;36.80;40.80;;;;;;6220860;23;20512;-81
2022/07/12 13:03:33;;;;;;;0.50;0.50;;;37.10;41.50;;;;;;6220163;23;20413;-81
2022/07/12 13:06:03;;;;;;;2.20;0.50;;;37.20;41.60;;;;;;6220339;23;20438;-82
2022/07/12 13:08:30;;;;;;;0.57;0.57;;;37.80;40.90;;;;;;6221115;23;20413;-81
2022/07/12 13:13:41;;;;;;;0.60;0.60;;;36.70;36.90;;;;;;6220277;23;20420;-81
2022/07/12 13:16:08;;;;;;;0.60;0.60;;;35.60;38.00;;;;;;6220149;23;20416;-80